Time;durP1;ratioP1;P1;durP2;ratioP2;P2;SDS_P1;SDS_P2;PMS_P1;PMS_P2;Temp;Humidity;BMP_temperature;BMP_pressure;BME280_temperature;BME280_humidity;BME280_pressure;Samples;Min_cycle;Max_cycle;Signal;HPM_P1;HPM_P2
2022/11/19 00:00:46;;;;;;;;;;;4.30;99.90;;;;;;4985365;28;19950;-73
2022/11/19 00:03:12;;;;;;;;;;;4.30;99.90;;;;;;4984417;28;19917;-72
2022/11/19 00:05:42;;;;;;;;;;;4.20;99.90;;;;;;4984039;28;19910;-73
2022/11/19 00:08:08;;;;;;;;;;;4.20;99.90;;;;;;4983635;28;19922;-73
2022/11/19 00:10:34;;;;;;;;;;;4.20;99.90;;;;;;4985355;28;20145;-73
2022/11/19 00:13:01;;;;;;;;;;;4.10;99.90;;;;;;4984113;28;19910;-73
2022/11/19 00:15:27;;;;;;;;;;;4.20;99.90;;;;;;4984024;28;19917;-73
2022/11/19 00:17:52;;;;;;;;;;;4.20;99.90;;;;;;4984860;28;19941;-73
2022/11/19 00:20:18;;;;;;;;;;;4.20;99.90;;;;;;4985096;28;19945;-73
2022/11/19 00:22:44;;;;;;;;;;;4.10;99.90;;;;;;4984374;28;19981;-74
2022/11/19 00:25:10;;;;;;;;;;;4.20;99.90;;;;;;4984548;28;19910;-74
2022/11/19 00:27:35;;;;;;;;;;;4.10;99.90;;;;;;4983403;28;19972;-73
2022/11/19 00:30:02;;;;;;;;;;;4.10;99.90;;;;;;4985026;28;20157;-73
2022/11/19 00:32:28;;;;;;;;;;;4.10;99.90;;;;;;4983851;28;19989;-73
2022/11/19 00:34:53;;;;;;;;;;;4.10;99.90;;;;;;4983716;28;20236;-74
2022/11/19 00:37:19;;;;;;;;;;;4.10;99.90;;;;;;4984365;28;20224;-74
2022/11/19 00:39:45;;;;;;;;;;;4.10;99.90;;;;;;4983644;28;20140;-73
2022/11/19 00:42:10;;;;;;;;;;;4.00;99.90;;;;;;4984856;28;19917;-74
2022/11/19 00:44:36;;;;;;;;;;;4.00;99.90;;;;;;4984618;28;20111;-74
2022/11/19 00:47:02;;;;;;;;;;;4.00;99.90;;;;;;4984352;28;20184;-74
2022/11/19 00:49:27;;;;;;;;;;;4.00;99.90;;;;;;4984593;28;19989;-73
2022/11/19 00:51:54;;;;;;;;;;;4.00;99.90;;;;;;4984644;28;19910;-73
2022/11/19 00:54:19;;;;;;;;;;;4.00;99.90;;;;;;4984362;28;19910;-74
2022/11/19 00:56:45;;;;;;;;;;;4.00;99.90;;;;;;4984386;28;19918;-73
2022/11/19 00:59:11;;;;;;;;;;;4.00;99.90;;;;;;4984361;28;20025;-73
2022/11/19 01:01:36;;;;;;;;;;;3.90;99.90;;;;;;4983274;28;19910;-73
2022/11/19 01:04:02;;;;;;;;;;;3.90;99.90;;;;;;4984433;28;19986;-73
2022/11/19 01:06:28;;;;;;;;;;;3.90;99.90;;;;;;4984002;28;20217;-73
2022/11/19 01:08:54;;;;;;;;;;;3.90;99.90;;;;;;4983934;28;20253;-73
2022/11/19 01:11:24;;;;;;;;;;;3.90;99.90;;;;;;4984020;28;19910;-73
2022/11/19 01:13:50;;;;;;;;;;;3.90;99.90;;;;;;4983072;28;20145;-73
2022/11/19 01:16:20;;;;;;;;;;;3.90;99.90;;;;;;4983724;28;19910;-73
2022/11/19 01:18:46;;;;;;;;;;;3.90;99.90;;;;;;4982882;28;19933;-73
2022/11/19 01:21:12;;;;;;;;;;;3.80;99.90;;;;;;4983517;28;19942;-73
2022/11/19 01:23:39;;;;;;;;;;;3.80;99.90;;;;;;4982763;28;19977;-73
2022/11/19 01:26:04;;;;;;;;;;;3.80;99.90;;;;;;4983674;28;19910;-73
2022/11/19 01:28:30;;;;;;;;;;;3.80;99.90;;;;;;4983928;28;19917;-73
2022/11/19 01:30:56;;;;;;;;;;;3.70;99.90;;;;;;4984018;28;19910;-73
2022/11/19 01:33:21;;;;;;;;;;;3.70;99.90;;;;;;4985509;28;20257;-73
2022/11/19 01:35:57;;;;;;;;;;;3.60;99.90;;;;;;4985975;28;20209;-73
2022/11/19 01:38:22;;;;;;;;;;;3.60;99.90;;;;;;4984653;28;19922;-73
2022/11/19 01:40:48;;;;;;;;;;;3.60;99.90;;;;;;4986453;28;19976;-73
2022/11/19 01:43:14;;;;;;;;;;;3.60;99.90;;;;;;4984257;28;19914;-73
2022/11/19 01:45:47;;;;;;;;;;;3.50;99.90;;;;;;4984121;28;19910;-73
2022/11/19 01:48:20;;;;;;;;;;;3.50;99.90;;;;;;4982362;28;19925;-72
2022/11/19 01:50:57;;;;;;;;;;;3.50;99.90;;;;;;4982665;28;19914;-73
2022/11/19 01:53:26;;;;;;;;;;;3.50;99.90;;;;;;4982276;28;20153;-72
2022/11/19 01:55:52;;;;;;;;;;;3.40;99.90;;;;;;4982511;28;19918;-72
2022/11/19 01:58:19;;;;;;;;;;;3.40;99.90;;;;;;4982294;28;19922;-73
2022/11/19 02:00:45;;;;;;;;;;;3.30;99.90;;;;;;4966433;28;20049;-73
2022/11/19 02:03:11;;;;;;;;;;;3.30;99.90;;;;;;4983582;28;19917;-73
2022/11/19 02:05:37;;;;;;;;;;;3.30;99.90;;;;;;4982490;28;19913;-73
2022/11/19 02:08:05;;;;;;;;;;;3.30;99.90;;;;;;4981584;28;19931;-73
2022/11/19 02:10:56;;;;;;;;;;;3.30;99.90;;;;;;4983496;28;20040;-72
2022/11/19 02:13:35;;;;;;;;;;;3.20;99.90;;;;;;4982380;28;20403;-72
2022/11/19 02:16:03;;;;;;;;;;;3.20;99.90;;;;;;4982203;28;19911;-73
2022/11/19 02:18:46;;;;;;;;;;;3.20;99.90;;;;;;4982473;28;20213;-72
2022/11/19 02:21:11;;;;;;;;;;;3.20;99.90;;;;;;4982342;28;19910;-72
2022/11/19 02:24:21;;;;;;;;;;;3.10;99.90;;;;;;4982663;28;19953;-72
2022/11/19 02:27:06;;;;;;;;;;;3.10;99.90;;;;;;4942579;29;20233;-72
2022/11/19 02:29:57;;;;;;;;;;;3.10;99.90;;;;;;4979968;28;20201;-72
2022/11/19 02:32:28;;;;;;;;;;;3.10;99.90;;;;;;4982415;28;20175;-72
2022/11/19 02:35:15;;;;;;;;;;;3.10;99.90;;;;;;4982205;28;19910;-72
2022/11/19 02:37:52;;;;;;;;;;;3.10;99.90;;;;;;4982807;28;19936;-72
2022/11/19 02:40:24;;;;;;;;;;;3.10;99.90;;;;;;4983277;28;19918;-72
2022/11/19 02:42:59;;;;;;;;;;;3.10;99.90;;;;;;4982166;28;20160;-72
2022/11/19 02:45:32;;;;;;;;;;;3.10;99.90;;;;;;4998327;28;19937;-73
2022/11/19 02:48:13;;;;;;;;;;;3.10;99.90;;;;;;4983884;28;19915;-72
2022/11/19 02:50:42;;;;;;;;;;;3.10;99.90;;;;;;4985882;28;19925;-73
2022/11/19 02:53:08;;;;;;;;;;;3.10;99.90;;;;;;4969459;28;19917;-72
2022/11/19 02:55:34;;;;;;;;;;;3.10;99.90;;;;;;4986793;28;19961;-73
2022/11/19 02:58:04;;;;;;;;;;;3.10;99.90;;;;;;4985347;28;19942;-72
2022/11/19 03:06:17;;;;;;;;;;;3.10;99.90;;;;;;4985460;28;19960;-73
2022/11/19 03:08:43;;;;;;;;;;;3.10;99.90;;;;;;4985292;28;19917;-72
2022/11/19 03:11:11;;;;;;;;;;;3.10;99.90;;;;;;4985371;28;19918;-72
2022/11/19 03:17:01;;;;;;;;;;;3.10;99.90;;;;;;4987723;28;19972;-73
2022/11/19 03:19:39;;;;;;;;;;;3.10;99.90;;;;;;4986143;28;19917;-72
2022/11/19 03:22:32;;;;;;;;;;;3.10;99.90;;;;;;4981910;28;19911;-72
2022/11/19 03:25:30;;;;;;;;;;;3.10;99.90;;;;;;4965665;28;19910;-73
2022/11/19 03:27:59;;;;;;;;;;;3.10;99.90;;;;;;4977514;28;19915;-73
2022/11/19 03:30:24;;;;;;;;;;;3.10;99.90;;;;;;4965916;28;19914;-73
2022/11/19 03:33:12;;;;;;;;;;;3.10;99.90;;;;;;4965694;29;20257;-72
2022/11/19 03:35:41;;;;;;;;;;;3.10;99.90;;;;;;4966640;28;19911;-73
2022/11/19 03:38:07;;;;;;;;;;;3.20;99.90;;;;;;4965190;28;19946;-72
2022/11/19 03:40:33;;;;;;;;;;;3.10;99.90;;;;;;4952606;28;20197;-72
2022/11/19 03:42:59;;;;;;;;;;;3.10;99.90;;;;;;4984845;28;19918;-73
2022/11/19 03:45:27;;;;;;;;;;;3.10;99.90;;;;;;4968655;28;19910;-73
2022/11/19 03:47:53;;;;;;;;;;;3.10;99.90;;;;;;4968335;28;19918;-73
2022/11/19 03:50:43;;;;;;;;;;;3.10;99.90;;;;;;4984633;28;20277;-73
2022/11/19 03:53:09;;;;;;;;;;;3.10;99.90;;;;;;4985296;28;19918;-73
2022/11/19 03:55:38;;;;;;;;;;;3.10;99.90;;;;;;4984447;28;19910;-72
2022/11/19 03:58:04;;;;;;;;;;;3.10;99.90;;;;;;4983847;28;19911;-72
2022/11/19 04:00:30;;;;;;;;;;;3.10;99.90;;;;;;4983891;28;19932;-72
2022/11/19 04:02:55;;;;;;;;;;;3.10;99.90;;;;;;4985389;28;19914;-72
2022/11/19 04:05:21;;;;;;;;;;;3.10;99.90;;;;;;4985385;28;19910;-72
2022/11/19 04:07:46;;;;;;;;;;;3.10;99.90;;;;;;4984643;28;19914;-72
2022/11/19 04:10:12;;;;;;;;;;;3.10;99.90;;;;;;4985296;28;19917;-72
2022/11/19 04:12:38;;;;;;;;;;;3.10;99.90;;;;;;4985129;28;19917;-72
2022/11/19 04:15:04;;;;;;;;;;;3.00;99.90;;;;;;4984874;28;19926;-72
2022/11/19 04:17:29;;;;;;;;;;;3.00;99.90;;;;;;4984798;28;19924;-72
2022/11/19 04:19:55;;;;;;;;;;;3.00;99.90;;;;;;4985151;28;20201;-72
2022/11/19 04:22:20;;;;;;;;;;;3.00;99.90;;;;;;4983778;28;20352;-72
2022/11/19 04:24:46;;;;;;;;;;;3.00;99.90;;;;;;4984830;28;19910;-72
2022/11/19 04:27:12;;;;;;;;;;;3.00;99.90;;;;;;4984598;28;19914;-72
2022/11/19 04:29:37;;;;;;;;;;;3.00;99.90;;;;;;4985103;28;19910;-72
2022/11/19 04:32:03;;;;;;;;;;;3.00;99.90;;;;;;4984908;28;20068;-73
2022/11/19 04:34:29;;;;;;;;;;;3.00;99.90;;;;;;4985005;28;19973;-72
2022/11/19 04:36:54;;;;;;;;;;;2.90;99.90;;;;;;4984513;28;20000;-72
2022/11/19 04:39:20;;;;;;;;;;;2.90;99.90;;;;;;4984453;28;19910;-73
2022/11/19 04:41:46;;;;;;;;;;;2.90;99.90;;;;;;4984680;28;19917;-72
2022/11/19 04:44:11;;;;;;;;;;;2.90;99.90;;;;;;4984692;28;19941;-73
2022/11/19 04:46:37;;;;;;;;;;;2.90;99.90;;;;;;4984220;28;19914;-73
2022/11/19 04:49:03;;;;;;;;;;;2.90;99.90;;;;;;4984483;28;19910;-73
2022/11/19 04:51:28;;;;;;;;;;;2.90;99.90;;;;;;4984457;28;19918;-73
2022/11/19 04:53:54;;;;;;;;;;;2.90;99.90;;;;;;4983060;28;20029;-73
2022/11/19 04:56:20;;;;;;;;;;;2.90;99.90;;;;;;4984212;28;19910;-73
2022/11/19 04:58:45;;;;;;;;;;;2.90;99.90;;;;;;4984294;28;19917;-73
2022/11/19 05:01:11;;;;;;;;;;;2.90;99.90;;;;;;4984307;28;19917;-73
2022/11/19 05:03:37;;;;;;;;;;;2.90;99.90;;;;;;4984319;28;19910;-73
2022/11/19 05:06:02;;;;;;;;;;;3.00;99.90;;;;;;4983966;28;19949;-73
2022/11/19 05:08:28;;;;;;;;;;;2.90;99.90;;;;;;4983748;28;19914;-73
2022/11/19 05:10:53;;;;;;;;;;;2.90;99.90;;;;;;4984083;28;20133;-73
2022/11/19 05:13:19;;;;;;;;;;;2.90;99.90;;;;;;4984187;28;20337;-73
2022/11/19 05:15:45;;;;;;;;;;;2.90;99.90;;;;;;4984214;28;19910;-73
2022/11/19 05:18:11;;;;;;;;;;;2.90;99.90;;;;;;4983778;28;20300;-73
2022/11/19 05:20:37;;;;;;;;;;;2.90;99.90;;;;;;4984075;28;20224;-73
2022/11/19 05:23:02;;;;;;;;;;;2.90;99.90;;;;;;4982635;28;19910;-72
2022/11/19 05:25:28;;;;;;;;;;;2.90;99.90;;;;;;4983798;28;20153;-73
2022/11/19 05:27:54;;;;;;;;;;;2.90;99.90;;;;;;4983556;28;19989;-73
2022/11/19 05:30:19;;;;;;;;;;;2.90;99.90;;;;;;4983924;28;20043;-73
2022/11/19 05:32:46;;;;;;;;;;;2.90;99.90;;;;;;4982203;28;20228;-72
2022/11/19 05:35:11;;;;;;;;;;;2.90;99.90;;;;;;4965977;28;20110;-72
2022/11/19 05:37:37;;;;;;;;;;;2.90;99.90;;;;;;4983099;28;20254;-72
2022/11/19 05:40:03;;;;;;;;;;;2.90;99.90;;;;;;4983026;28;20228;-72
2022/11/19 05:42:29;;;;;;;;;;;2.90;99.90;;;;;;4990776;28;20123;-72
2022/11/19 05:44:54;;;;;;;;;;;2.80;99.90;;;;;;4989279;28;19910;-72
2022/11/19 05:47:20;;;;;;;;;;;2.80;99.90;;;;;;4984657;28;19957;-73
2022/11/19 05:49:46;;;;;;;;;;;2.80;99.90;;;;;;4987236;28;19975;-72
2022/11/19 05:52:11;;;;;;;;;;;2.80;99.90;;;;;;5002454;28;19957;-72
2022/11/19 05:54:37;;;;;;;;;;;2.80;99.90;;;;;;5002253;28;20205;-72
2022/11/19 05:57:03;;;;;;;;;;;2.90;99.90;;;;;;4988379;28;19910;-72
2022/11/19 05:59:28;;;;;;;;;;;2.90;99.90;;;;;;4993242;28;19914;-72
2022/11/19 06:01:54;;;;;;;;;;;2.90;99.90;;;;;;4984429;28;20113;-72
2022/11/19 06:04:20;;;;;;;;;;;2.90;99.90;;;;;;5000073;28;19948;-72
2022/11/19 06:06:45;;;;;;;;;;;2.90;99.90;;;;;;4984553;28;19922;-72
2022/11/19 06:09:11;;;;;;;;;;;2.90;99.90;;;;;;5002419;28;19933;-72
2022/11/19 06:11:49;;;;;;;;;;;2.90;99.90;;;;;;4984497;28;19910;-72
2022/11/19 06:14:24;;;;;;;;;;;2.90;99.90;;;;;;4996609;28;20201;-72
2022/11/19 06:16:51;;;;;;;;;;;2.90;99.90;;;;;;4985933;28;20168;-72
2022/11/19 06:19:17;;;;;;;;;;;2.90;99.90;;;;;;4992031;28;20037;-72
2022/11/19 06:21:43;;;;;;;;;;;2.90;99.90;;;;;;4987397;28;20148;-72
2022/11/19 06:24:09;;;;;;;;;;;2.90;99.90;;;;;;4996335;28;19922;-72
2022/11/19 06:26:34;;;;;;;;;;;3.00;99.90;;;;;;4998029;28;19949;-72
2022/11/19 06:29:00;;;;;;;;;;;2.90;99.90;;;;;;4994632;28;19922;-72
2022/11/19 06:31:25;;;;;;;;;;;2.90;99.90;;;;;;4998414;28;19921;-72
2022/11/19 06:33:54;;;;;;;;;;;2.90;99.90;;;;;;4997692;28;19988;-71
2022/11/19 06:36:20;;;;;;;;;;;3.00;99.90;;;;;;4992147;28;19914;-72
2022/11/19 06:38:46;;;;;;;;;;;3.00;99.90;;;;;;4974611;28;20218;-72
2022/11/19 06:41:11;;;;;;;;;;;2.90;99.90;;;;;;4991955;28;19913;-72
2022/11/19 06:43:37;;;;;;;;;;;3.00;99.90;;;;;;4992804;28;19914;-72
2022/11/19 06:46:03;;;;;;;;;;;3.00;99.90;;;;;;4986992;28;19914;-72
2022/11/19 06:48:28;;;;;;;;;;;3.00;99.90;;;;;;4991907;28;19922;-72
2022/11/19 06:50:54;;;;;;;;;;;3.00;99.90;;;;;;4986556;28;19926;-72
2022/11/19 06:53:20;;;;;;;;;;;3.00;99.90;;;;;;5000575;28;19914;-72
2022/11/19 06:55:45;;;;;;;;;;;3.00;99.90;;;;;;5000263;28;19953;-72
2022/11/19 06:58:13;;;;;;;;;;;3.10;99.90;;;;;;4994457;28;19914;-72
2022/11/19 07:00:39;;;;;;;;;;;3.00;99.90;;;;;;4995022;28;19918;-72
2022/11/19 07:03:04;;;;;;;;;;;3.10;99.90;;;;;;4994814;28;19921;-72
2022/11/19 07:05:30;;;;;;;;;;;3.10;99.90;;;;;;5002137;28;19914;-72
2022/11/19 07:07:56;;;;;;;;;;;3.10;99.90;;;;;;4990033;28;19918;-72
2022/11/19 07:10:22;;;;;;;;;;;3.10;99.90;;;;;;4992582;28;20148;-72
2022/11/19 07:12:48;;;;;;;;;;;3.10;99.90;;;;;;4996963;28;19953;-72
2022/11/19 07:15:13;;;;;;;;;;;3.10;99.90;;;;;;4988802;28;19941;-72
2022/11/19 07:17:41;;;;;;;;;;;3.10;99.90;;;;;;4994903;28;19917;-72
2022/11/19 07:20:07;;;;;;;;;;;3.10;99.90;;;;;;4994261;28;19920;-72
2022/11/19 07:22:33;;;;;;;;;;;3.20;99.90;;;;;;4986060;28;19921;-72
2022/11/19 07:24:58;;;;;;;;;;;3.10;99.90;;;;;;5000537;28;20221;-72
2022/11/19 07:27:24;;;;;;;;;;;3.10;99.90;;;;;;4996561;28;19925;-72
2022/11/19 07:29:50;;;;;;;;;;;3.10;99.90;;;;;;5002545;28;20005;-72
2022/11/19 07:32:15;;;;;;;;;;;3.20;99.90;;;;;;4999460;28;19917;-71
2022/11/19 07:34:41;;;;;;;;;;;3.20;99.90;;;;;;4994969;28;19910;-72
2022/11/19 07:37:07;;;;;;;;;;;3.20;99.90;;;;;;4993591;28;19921;-71
2022/11/19 07:39:33;;;;;;;;;;;3.10;99.90;;;;;;4988300;28;19961;-72
2022/11/19 07:44:43;;;;;;;;;;;3.10;99.90;;;;;;5002458;28;19965;-72
2022/11/19 07:47:09;;;;;;;;;;;3.10;99.90;;;;;;4987763;28;19925;-72
2022/11/19 07:49:34;;;;;;;;;;;3.10;99.90;;;;;;4995012;28;19917;-72
2022/11/19 07:52:00;;;;;;;;;;;3.00;99.90;;;;;;4989189;28;20943;-72
2022/11/19 07:54:26;;;;;;;;;;;3.00;99.90;;;;;;4987924;28;19921;-73
2022/11/19 07:56:52;;;;;;;;;;;2.90;99.90;;;;;;4984787;28;19918;-70
2022/11/19 07:59:17;;;;;;;;;;;2.90;99.90;;;;;;4986045;28;19921;-69
2022/11/19 08:01:43;;;;;;;;;;;2.90;99.90;;;;;;4986531;28;20200;-69
2022/11/19 08:04:09;;;;;;;;;;;2.80;99.90;;;;;;4982330;28;19964;-69
2022/11/19 08:06:34;;;;;;;;;;;2.80;99.90;;;;;;4984991;28;20010;-70
2022/11/19 08:09:01;;;;;;;;;;;2.90;99.90;;;;;;4985257;28;19917;-69
2022/11/19 08:11:26;;;;;;;;;;;2.80;99.90;;;;;;4984804;28;19914;-69
2022/11/19 08:13:52;;;;;;;;;;;2.80;99.90;;;;;;4984109;28;19928;-69
2022/11/19 08:19:09;;;;;;;;;;;2.70;99.90;;;;;;4983614;28;20004;-69
2022/11/19 08:21:35;;;;;;;;;;;2.70;99.90;;;;;;4967116;28;19949;-69
2022/11/19 08:24:01;;;;;;;;;;;2.60;99.90;;;;;;4982831;28;19914;-69
2022/11/19 08:26:27;;;;;;;;;;;2.50;99.90;;;;;;4983907;28;19914;-69
2022/11/19 08:28:53;;;;;;;;;;;2.40;99.90;;;;;;4982680;28;19917;-69
2022/11/19 08:31:19;;;;;;;;;;;2.30;99.90;;;;;;4982673;28;20268;-69
2022/11/19 08:33:44;;;;;;;;;;;2.30;99.90;;;;;;4982605;28;19958;-68
2022/11/19 08:36:10;;;;;;;;;;;2.30;99.90;;;;;;4984271;28;19926;-68
2022/11/19 08:38:36;;;;;;;;;;;2.20;99.90;;;;;;4990512;28;19914;-68
2022/11/19 08:43:45;;;;;;;;;;;2.20;99.90;;;;;;4991883;28;20325;-68
2022/11/19 08:46:11;;;;;;;;;;;2.20;99.90;;;;;;4992971;28;19922;-68
2022/11/19 08:48:37;;;;;;;;;;;2.20;99.90;;;;;;4984680;28;20202;-68
2022/11/19 08:51:06;;;;;;;;;;;2.20;99.90;;;;;;4984394;28;20236;-69
2022/11/19 08:53:32;;;;;;;;;;;2.20;99.90;;;;;;4985262;28;19945;-74
2022/11/19 08:55:57;;;;;;;;;;;2.20;99.90;;;;;;4984982;28;20117;-70
2022/11/19 08:58:23;;;;;;;;;;;2.20;99.90;;;;;;4985065;28;19910;-69
2022/11/19 09:00:50;;;;;;;;;;;2.20;99.90;;;;;;4967419;28;19925;-70
2022/11/19 09:03:15;;;;;;;;;;;2.30;99.90;;;;;;4985053;28;19916;-70
2022/11/19 09:05:44;;;;;;;;;;;2.30;99.90;;;;;;4984853;28;20109;-70
2022/11/19 09:08:10;;;;;;;;;;;2.40;99.90;;;;;;4984870;28;19960;-69
2022/11/19 09:10:36;;;;;;;;;;;2.40;99.90;;;;;;4985276;28;19910;-69
2022/11/19 09:13:05;;;;;;;;;;;2.40;99.90;;;;;;4984097;28;19942;-69
2022/11/19 09:15:30;;;;;;;;;;;2.40;99.90;;;;;;4984640;28;19917;-69
2022/11/19 09:17:56;;;;;;;;;;;2.40;99.90;;;;;;4982910;28;19914;-70
2022/11/19 09:20:22;;;;;;;;;;;2.40;99.90;;;;;;4984693;28;19910;-70
2022/11/19 09:22:50;;;;;;;;;;;2.40;99.90;;;;;;4984439;28;19977;-69
2022/11/19 09:25:16;;;;;;;;;;;2.40;99.90;;;;;;4984916;28;19942;-70
2022/11/19 09:27:42;;;;;;;;;;;2.40;99.90;;;;;;4982922;28;19918;-70
2022/11/19 09:30:08;;;;;;;;;;;2.30;99.90;;;;;;4984340;28;20196;-68
2022/11/19 09:32:33;;;;;;;;;;;2.30;99.90;;;;;;4984383;28;19973;-69
2022/11/19 09:34:59;;;;;;;;;;;2.30;99.90;;;;;;4984502;28;20213;-68
2022/11/19 09:37:25;;;;;;;;;;;2.40;99.90;;;;;;4982904;28;20105;-69
2022/11/19 09:39:50;;;;;;;;;;;2.50;99.90;;;;;;4984525;28;19957;-68
2022/11/19 09:42:25;;;;;;;;;;;2.50;99.90;;;;;;4984366;28;19934;-69
2022/11/19 09:45:08;;;;;;;;;;;2.50;99.90;;;;;;4984406;28;20102;-68
2022/11/19 09:48:01;;;;;;;;;;;2.50;99.90;;;;;;4983093;28;19922;-68
2022/11/19 09:50:36;;;;;;;;;;;2.50;99.90;;;;;;4984324;28;19910;-68
2022/11/19 09:53:12;;;;;;;;;;;2.50;99.90;;;;;;4983471;28;19918;-68
2022/11/19 09:55:44;;;;;;;;;;;2.50;99.90;;;;;;4986512;28;20206;-68
2022/11/19 09:58:16;;;;;;;;;;;2.50;99.90;;;;;;4986784;28;19933;-68
2022/11/19 10:00:42;;;;;;;;;;;2.60;99.90;;;;;;4986210;28;19910;-69
2022/11/19 10:03:14;;;;;;;;;;;2.60;99.90;;;;;;4986988;28;19910;-68
2022/11/19 10:05:55;;;;;;;;;;;2.50;99.90;;;;;;4984539;28;19917;-68
2022/11/19 10:08:55;;;;;;;;;;;2.50;99.90;;;;;;4982328;28;19914;-68
2022/11/19 10:11:47;;;;;;;;;;;2.40;99.90;;;;;;4982331;28;20008;-68
2022/11/19 10:14:37;;;;;;;;;;;2.40;99.90;;;;;;4970320;28;20030;-68
2022/11/19 10:17:28;;;;;;;;;;;2.40;99.90;;;;;;4968533;28;19917;-68
2022/11/19 10:20:32;;;;;;;;;;;2.50;99.90;;;;;;4982629;28;20025;-69
2022/11/19 10:23:21;;;;;;;;;;;2.60;99.90;;;;;;4962119;29;19917;-69
2022/11/19 10:25:48;;;;;;;;;;;2.60;99.90;;;;;;4982830;28;20201;-68
2022/11/19 10:28:28;;;;;;;;;;;2.60;99.90;;;;;;4981695;28;20182;-68
2022/11/19 10:31:13;;;;;;;;;;;2.70;99.90;;;;;;4981997;28;19944;-68
2022/11/19 10:34:06;;;;;;;;;;;2.60;99.90;;;;;;4982878;28;19925;-68
2022/11/19 10:36:42;;;;;;;;;;;2.70;99.90;;;;;;4982830;28;19914;-68
2022/11/19 10:39:21;;;;;;;;;;;2.70;99.90;;;;;;4982120;28;19921;-68
2022/11/19 10:41:57;;;;;;;;;;;2.70;99.90;;;;;;4982282;28;19985;-69
2022/11/19 10:44:52;;;;;;;;;;;2.70;99.90;;;;;;4982056;28;19953;-69
2022/11/19 10:47:21;;;;;;;;;;;2.70;99.90;;;;;;4979336;28;19914;-69
2022/11/19 10:49:50;;;;;;;;;;;2.70;99.90;;;;;;4982168;28;19917;-68
2022/11/19 10:52:19;;;;;;;;;;;2.70;99.90;;;;;;4982368;28;19917;-68
2022/11/19 10:54:45;;;;;;;;;;;2.70;99.90;;;;;;4983564;28;20210;-68
2022/11/19 10:57:13;;;;;;;;;;;2.70;99.90;;;;;;4982001;28;19918;-68
2022/11/19 10:59:39;;;;;;;;;;;2.70;99.90;;;;;;4982136;28;19918;-68
2022/11/19 11:02:35;;;;;;;;;;;2.70;99.90;;;;;;4966180;28;19911;-68
2022/11/19 11:05:05;;;;;;;;;;;2.70;99.90;;;;;;4981918;28;19942;-69
2022/11/19 11:07:50;;;;;;;;;;;2.70;99.90;;;;;;4982662;28;19920;-68
2022/11/19 11:10:41;;;;;;;;;;;2.70;99.90;;;;;;4987245;28;19910;-69
2022/11/19 11:16:21;;;;;;;;;;;2.70;99.90;;;;;;4972052;28;19961;-68
2022/11/19 11:18:47;;;;;;;;;;;2.80;99.90;;;;;;4987646;28;19981;-69
2022/11/19 11:21:34;;;;;;;;;;;2.90;99.90;;;;;;4985688;28;19925;-68
2022/11/19 11:24:01;;;;;;;;;;;2.90;99.90;;;;;;4984593;28;20129;-69
2022/11/19 11:26:27;;;;;;;;;;;2.80;99.90;;;;;;4984709;28;20201;-69
2022/11/19 11:29:23;;;;;;;;;;;2.80;99.90;;;;;;4985952;28;19975;-69
2022/11/19 11:31:48;;;;;;;;;;;2.80;99.90;;;;;;4984046;28;20423;-69
2022/11/19 11:34:27;;;;;;;;;;;2.80;99.90;;;;;;4985887;28;19924;-69
2022/11/19 11:36:53;;;;;;;;;;;2.80;99.90;;;;;;4985792;28;20117;-69
2022/11/19 11:39:35;;;;;;;;;;;2.80;99.90;;;;;;4984278;28;19921;-69
2022/11/19 11:42:00;;;;;;;;;;;2.80;99.90;;;;;;4983996;28;19960;-70
2022/11/19 11:44:27;;;;;;;;;;;2.80;99.90;;;;;;4984316;28;19918;-69
2022/11/19 11:47:00;;;;;;;;;;;2.70;99.90;;;;;;4980943;28;19949;-69
2022/11/19 11:49:42;;;;;;;;;;;2.70;99.90;;;;;;4984852;28;19925;-70
2022/11/19 11:52:08;;;;;;;;;;;2.70;99.90;;;;;;4984545;28;19945;-69
2022/11/19 11:54:35;;;;;;;;;;;2.70;99.90;;;;;;4985002;28;20125;-70
2022/11/19 11:57:16;;;;;;;;;;;2.70;99.90;;;;;;4967780;28;19918;-69
2022/11/19 11:59:41;;;;;;;;;;;2.70;99.90;;;;;;4983737;28;19910;-70
2022/11/19 12:02:16;;;;;;;;;;;2.70;99.90;;;;;;4985147;28;20173;-69
2022/11/19 12:04:42;;;;;;;;;;;2.70;99.90;;;;;;4984175;28;19916;-70
2022/11/19 12:07:19;;;;;;;;;;;2.70;99.90;;;;;;4983948;28;19914;-69
2022/11/19 12:10:02;;;;;;;;;;;2.70;99.90;;;;;;4984479;28;19910;-69
2022/11/19 12:13:03;;;;;;;;;;;2.70;99.90;;;;;;4985440;28;19910;-69
2022/11/19 12:15:53;;;;;;;;;;;2.70;99.90;;;;;;4958013;29;19926;-69
2022/11/19 12:18:22;;;;;;;;;;;2.60;99.90;;;;;;4980410;28;20213;-69
2022/11/19 12:21:05;;;;;;;;;;;2.50;99.90;;;;;;4981363;28;19956;-69
2022/11/19 12:23:49;;;;;;;;;;;2.50;99.90;;;;;;4967478;28;20039;-69
2022/11/19 12:26:47;;;;;;;;;;;2.40;99.90;;;;;;4983446;28;19913;-69
2022/11/19 12:29:48;;;;;;;;;;;2.50;99.90;;;;;;4999407;28;19910;-69
2022/11/19 12:32:32;;;;;;;;;;;2.50;99.90;;;;;;4978709;28;19921;-69
2022/11/19 12:35:22;;;;;;;;;;;2.50;99.90;;;;;;4983079;28;20048;-69
2022/11/19 12:38:16;;;;;;;;;;;2.40;99.90;;;;;;4981371;28;19937;-69
2022/11/19 12:41:08;;;;;;;;;;;2.50;99.90;;;;;;4983439;28;19918;-69
2022/11/19 12:43:57;;;;;;;;;;;2.50;99.90;;;;;;4978930;28;19964;-69
2022/11/19 12:46:55;;;;;;;;;;;2.50;99.90;;;;;;4982002;28;19929;-69
2022/11/19 12:49:25;;;;;;;;;;;2.50;99.90;;;;;;4980837;28;19918;-69
2022/11/19 12:52:03;;;;;;;;;;;2.50;99.90;;;;;;4982240;28;19914;-69
2022/11/19 12:55:16;;;;;;;;;;;2.50;99.90;;;;;;4984676;28;20289;-68
2022/11/19 12:57:47;;;;;;;;;;;2.40;99.90;;;;;;4974703;28;19910;-68
2022/11/19 13:00:20;;;;;;;;;;;2.50;99.90;;;;;;4983300;28;19972;-68
2022/11/19 13:02:46;;;;;;;;;;;2.50;99.90;;;;;;4983515;28;19969;-68
2022/11/19 13:05:21;;;;;;;;;;;2.40;99.90;;;;;;4984391;28;19910;-68
2022/11/19 13:07:55;;;;;;;;;;;2.40;99.90;;;;;;4982697;28;19961;-68
2022/11/19 13:10:25;;;;;;;;;;;2.40;99.90;;;;;;4984805;28;19997;-68
2022/11/19 13:12:53;;;;;;;;;;;2.40;99.90;;;;;;4967442;28;19910;-68
2022/11/19 13:15:25;;;;;;;;;;;2.30;99.90;;;;;;4983215;28;19925;-68
2022/11/19 13:17:52;;;;;;;;;;;2.30;99.90;;;;;;4966720;28;19910;-68
2022/11/19 13:20:26;;;;;;;;;;;2.30;99.90;;;;;;4967164;28;20169;-68
2022/11/19 13:23:01;;;;;;;;;;;2.30;99.90;;;;;;4979186;28;19937;-68
2022/11/19 13:25:32;;;;;;;;;;;2.30;99.90;;;;;;4963993;28;19997;-68
2022/11/19 13:27:59;;;;;;;;;;;2.30;99.90;;;;;;4963335;29;20091;-68
2022/11/19 13:30:25;;;;;;;;;;;2.30;99.90;;;;;;4963715;28;19911;-68
2022/11/19 13:33:12;;;;;;;;;;;2.20;99.90;;;;;;4963495;28;20245;-69
2022/11/19 13:35:57;;;;;;;;;;;2.20;99.90;;;;;;4964656;28;19917;-69
2022/11/19 13:38:26;;;;;;;;;;;2.20;99.90;;;;;;4965731;28;19922;-69
2022/11/19 13:40:51;;;;;;;;;;;2.20;99.90;;;;;;4982796;28;19914;-69
2022/11/19 13:46:07;;;;;;;;;;;2.20;99.90;;;;;;4980155;28;19921;-69
2022/11/19 13:48:36;;;;;;;;;;;2.20;99.90;;;;;;4983346;28;19914;-69
2022/11/19 13:51:02;;;;;;;;;;;2.10;99.90;;;;;;4982786;28;19914;-69
2022/11/19 13:53:42;;;;;;;;;;;2.10;99.90;;;;;;4979307;28;19929;-69
2022/11/19 13:56:14;;;;;;;;;;;2.10;99.90;;;;;;4982172;28;19918;-69
2022/11/19 13:58:47;;;;;;;;;;;2.00;99.90;;;;;;4981816;28;19928;-69
2022/11/19 14:01:30;;;;;;;;;;;2.00;99.90;;;;;;4982080;28;20209;-69
2022/11/19 14:04:04;;;;;;;;;;;2.00;99.90;;;;;;4981884;28;19914;-69
2022/11/19 14:07:01;;;;;;;;;;;2.00;99.90;;;;;;4979975;28;19913;-70
2022/11/19 14:09:40;;;;;;;;;;;2.00;99.90;;;;;;4977676;28;19921;-69
2022/11/19 14:12:36;;;;;;;;;;;2.00;99.90;;;;;;4982998;28;19953;-69
2022/11/19 14:27:30;;;;;;;;;;;2.20;99.90;;;;;;4983024;28;19921;-70
2022/11/19 14:30:06;;;;;;;;;;;2.20;99.90;;;;;;4983315;28;20345;-70
2022/11/19 14:32:48;;;;;;;;;;;2.20;99.90;;;;;;4966320;28;20134;-70
2022/11/19 14:35:27;;;;;;;;;;;2.30;99.90;;;;;;4976695;28;19918;-70
2022/11/19 14:38:05;;;;;;;;;;;2.30;99.90;;;;;;4966192;28;20113;-66
2022/11/19 14:40:31;;;;;;;;;;;2.30;99.90;;;;;;4982694;28;19941;-69
2022/11/19 14:46:04;;;;;;;;;;;2.30;99.90;;;;;;4984188;28;19937;-69
2022/11/19 14:48:38;;;;;;;;;;;2.30;99.90;;;;;;4988608;28;19926;-69
2022/11/19 14:51:11;;;;;;;;;;;2.40;99.90;;;;;;4986652;28;19918;-71
2022/11/19 14:53:50;;;;;;;;;;;2.30;99.90;;;;;;4960548;28;19910;-74
2022/11/19 14:56:18;;;;;;;;;;;2.30;99.90;;;;;;4983560;28;19936;-79
2022/11/19 14:58:50;;;;;;;;;;;2.30;99.90;;;;;;4970235;28;19918;-80
2022/11/19 15:01:16;;;;;;;;;;;2.20;99.90;;;;;;4970582;28;19910;-71
2022/11/19 15:03:45;;;;;;;;;;;2.20;99.90;;;;;;4968927;28;19985;-71
2022/11/19 15:06:11;;;;;;;;;;;2.20;99.90;;;;;;4984333;28;19937;-71
2022/11/19 15:08:46;;;;;;;;;;;2.20;99.90;;;;;;4965122;29;19914;-71
2022/11/19 15:11:12;;;;;;;;;;;2.20;99.90;;;;;;4974008;28;19914;-71
2022/11/19 15:13:45;;;;;;;;;;;2.20;99.90;;;;;;4984915;28;20228;-71
2022/11/19 15:16:14;;;;;;;;;;;2.20;99.90;;;;;;4986054;28;19910;-71
2022/11/19 15:18:43;;;;;;;;;;;2.20;99.90;;;;;;4967375;28;20138;-70
2022/11/19 15:21:20;;;;;;;;;;;2.20;99.90;;;;;;4985686;28;19929;-72
2022/11/19 15:24:14;;;;;;;;;;;2.20;99.90;;;;;;4980614;28;20224;-69
2022/11/19 15:26:52;;;;;;;;;;;2.10;99.90;;;;;;4981964;28;20133;-70
2022/11/19 15:29:17;;;;;;;;;;;2.10;99.90;;;;;;4983756;28;19926;-69
2022/11/19 15:32:03;;;;;;;;;;;2.10;99.90;;;;;;4986054;28;19957;-70